sensor_id;sensor_type;location;lat;lon;timestamp;P1;durP1;ratioP1;P2;durP2;ratioP2
29854;SDS011;16733;48.738;9.106;2022-09-23T00:01:39;1324.70;;;999.90;;
29854;SDS011;16733;48.738;9.106;2022-09-23T00:04:05;1123.10;;;991.03;;
29854;SDS011;16733;48.738;9.106;2022-09-23T00:06:31;906.38;;;821.85;;
29854;SDS011;16733;48.738;9.106;2022-09-23T00:08:56;971.15;;;878.72;;
29854;SDS011;16733;48.738;9.106;2022-09-23T00:11:23;955.90;;;859.53;;
29854;SDS011;16733;48.738;9.106;2022-09-23T00:13:51;1051.18;;;961.35;;
29854;SDS011;16733;48.738;9.106;2022-09-23T00:19:41;1999.90;;;999.90;;
29854;SDS011;16733;48.738;9.106;2022-09-23T00:22:06;1475.38;;;999.90;;
29854;SDS011;16733;48.738;9.106;2022-09-23T00:24:32;1472.82;;;999.90;;
29854;SDS011;16733;48.738;9.106;2022-09-23T00:26:58;1724.15;;;999.90;;
29854;SDS011;16733;48.738;9.106;2022-09-23T00:29:24;1598.95;;;999.90;;
29854;SDS011;16733;48.738;9.106;2022-09-23T00:31:50;1742.93;;;999.90;;
29854;SDS011;16733;48.738;9.106;2022-09-23T00:34:16;1585.53;;;999.90;;
29854;SDS011;16733;48.738;9.106;2022-09-23T00:36:41;1511.95;;;999.90;;
29854;SDS011;16733;48.738;9.106;2022-09-23T00:39:07;1433.95;;;999.90;;
29854;SDS011;16733;48.738;9.106;2022-09-23T00:44:56;1551.90;;;987.80;;
29854;SDS011;16733;48.738;9.106;2022-09-23T00:47:25;1649.43;;;999.90;;
29854;SDS011;16733;48.738;9.106;2022-09-23T00:49:56;1511.13;;;999.90;;
29854;SDS011;16733;48.738;9.106;2022-09-23T00:52:44;1674.78;;;999.90;;
29854;SDS011;16733;48.738;9.106;2022-09-23T00:55:21;1532.72;;;999.90;;
29854;SDS011;16733;48.738;9.106;2022-09-23T00:57:54;1391.63;;;999.90;;
29854;SDS011;16733;48.738;9.106;2022-09-23T01:04:21;1307.85;;;999.90;;
29854;SDS011;16733;48.738;9.106;2022-09-23T01:06:48;1388.72;;;999.90;;
29854;SDS011;16733;48.738;9.106;2022-09-23T01:09:14;1068.82;;;972.60;;
29854;SDS011;16733;48.738;9.106;2022-09-23T01:14:33;1081.78;;;984.75;;
29854;SDS011;16733;48.738;9.106;2022-09-23T01:17:50;1103.85;;;997.97;;
29854;SDS011;16733;48.738;9.106;2022-09-23T01:29:13;953.63;;;866.80;;
29854;SDS011;16733;48.738;9.106;2022-09-23T01:32:06;915.85;;;832.65;;
29854;SDS011;16733;48.738;9.106;2022-09-23T01:37:59;972.83;;;879.20;;
29854;SDS011;16733;48.738;9.106;2022-09-23T01:44:08;964.80;;;870.63;;
29854;SDS011;16733;48.738;9.106;2022-09-23T01:49:35;1073.28;;;946.42;;
29854;SDS011;16733;48.738;9.106;2022-09-23T01:52:08;1597.38;;;999.90;;
29854;SDS011;16733;48.738;9.106;2022-09-23T01:54:45;1054.38;;;935.25;;
29854;SDS011;16733;48.738;9.106;2022-09-23T01:57:15;1079.28;;;929.80;;
29854;SDS011;16733;48.738;9.106;2022-09-23T02:07:39;1158.28;;;950.08;;
29854;SDS011;16733;48.738;9.106;2022-09-23T02:10:20;1421.38;;;999.90;;
29854;SDS011;16733;48.738;9.106;2022-09-23T02:12:50;1999.90;;;999.90;;
29854;SDS011;16733;48.738;9.106;2022-09-23T02:18:45;1881.15;;;999.90;;
29854;SDS011;16733;48.738;9.106;2022-09-23T02:21:16;1156.78;;;950.75;;
29854;SDS011;16733;48.738;9.106;2022-09-23T02:24:38;1211.55;;;945.85;;
29854;SDS011;16733;48.738;9.106;2022-09-23T02:32:35;1202.63;;;964.83;;
29854;SDS011;16733;48.738;9.106;2022-09-23T02:35:19;1852.95;;;999.90;;
29854;SDS011;16733;48.738;9.106;2022-09-23T02:41:09;1173.70;;;941.85;;
29854;SDS011;16733;48.738;9.106;2022-09-23T02:46:10;1236.35;;;966.40;;
29854;SDS011;16733;48.738;9.106;2022-09-23T02:51:35;1387.97;;;999.90;;
29854;SDS011;16733;48.738;9.106;2022-09-23T02:54:02;1342.30;;;999.90;;
29854;SDS011;16733;48.738;9.106;2022-09-23T02:56:31;1947.75;;;999.90;;
29854;SDS011;16733;48.738;9.106;2022-09-23T02:58:57;1437.93;;;999.90;;
29854;SDS011;16733;48.738;9.106;2022-09-23T03:01:31;1253.70;;;999.90;;
29854;SDS011;16733;48.738;9.106;2022-09-23T03:18:16;1212.17;;;991.20;;
29854;SDS011;16733;48.738;9.106;2022-09-23T03:20:47;1999.90;;;999.90;;
29854;SDS011;16733;48.738;9.106;2022-09-23T03:27:09;1999.90;;;999.90;;
29854;SDS011;16733;48.738;9.106;2022-09-23T03:39:52;1987.82;;;999.90;;
29854;SDS011;16733;48.738;9.106;2022-09-23T03:42:29;1999.90;;;999.90;;
29854;SDS011;16733;48.738;9.106;2022-09-23T03:44:56;1299.43;;;999.90;;
29854;SDS011;16733;48.738;9.106;2022-09-23T03:47:23;1999.90;;;999.90;;
29854;SDS011;16733;48.738;9.106;2022-09-23T03:49:51;1217.53;;;990.15;;
29854;SDS011;16733;48.738;9.106;2022-09-23T03:52:17;1193.07;;;956.92;;
29854;SDS011;16733;48.738;9.106;2022-09-23T03:54:47;1941.57;;;997.80;;
29854;SDS011;16733;48.738;9.106;2022-09-23T04:00:38;1240.63;;;934.38;;
29854;SDS011;16733;48.738;9.106;2022-09-23T04:03:03;1999.90;;;999.35;;
29854;SDS011;16733;48.738;9.106;2022-09-23T04:05:29;1193.32;;;960.72;;
29854;SDS011;16733;48.738;9.106;2022-09-23T04:07:55;1194.70;;;932.75;;
29854;SDS011;16733;48.738;9.106;2022-09-23T04:10:20;1999.90;;;998.50;;
29854;SDS011;16733;48.738;9.106;2022-09-23T04:12:46;1362.78;;;999.90;;
29854;SDS011;16733;48.738;9.106;2022-09-23T04:15:12;1314.28;;;998.63;;
29854;SDS011;16733;48.738;9.106;2022-09-23T04:17:37;1404.22;;;950.13;;
29854;SDS011;16733;48.738;9.106;2022-09-23T04:20:03;1376.55;;;924.60;;
29854;SDS011;16733;48.738;9.106;2022-09-23T04:22:31;1852.07;;;911.30;;
29854;SDS011;16733;48.738;9.106;2022-09-23T04:24:57;1263.20;;;904.45;;
29854;SDS011;16733;48.738;9.106;2022-09-23T04:27:23;1999.90;;;990.25;;
29854;SDS011;16733;48.738;9.106;2022-09-23T04:29:48;1999.90;;;952.58;;
29854;SDS011;16733;48.738;9.106;2022-09-23T04:32:14;1906.10;;;940.08;;
29854;SDS011;16733;48.738;9.106;2022-09-23T04:38:02;1999.90;;;985.47;;
29854;SDS011;16733;48.738;9.106;2022-09-23T04:40:31;1999.90;;;999.90;;
29854;SDS011;16733;48.738;9.106;2022-09-23T04:42:58;1239.32;;;850.75;;
29854;SDS011;16733;48.738;9.106;2022-09-23T04:45:23;1336.63;;;867.53;;
29854;SDS011;16733;48.738;9.106;2022-09-23T04:47:49;1427.35;;;886.25;;
29854;SDS011;16733;48.738;9.106;2022-09-23T04:50:15;1331.85;;;889.08;;
29854;SDS011;16733;48.738;9.106;2022-09-23T04:52:40;1334.57;;;881.08;;
29854;SDS011;16733;48.738;9.106;2022-09-23T04:55:06;1999.90;;;997.58;;
29854;SDS011;16733;48.738;9.106;2022-09-23T05:00:54;1999.90;;;995.78;;
29854;SDS011;16733;48.738;9.106;2022-09-23T05:03:21;1999.90;;;950.88;;
29854;SDS011;16733;48.738;9.106;2022-09-23T05:05:48;1999.90;;;950.55;;
29854;SDS011;16733;48.738;9.106;2022-09-23T05:08:13;1426.70;;;911.40;;
29854;SDS011;16733;48.738;9.106;2022-09-23T05:10:39;1999.90;;;999.00;;
29854;SDS011;16733;48.738;9.106;2022-09-23T05:13:06;1377.18;;;887.05;;
29854;SDS011;16733;48.738;9.106;2022-09-23T05:22:16;1999.90;;;998.13;;
29854;SDS011;16733;48.738;9.106;2022-09-23T05:28:04;1693.35;;;962.97;;
29854;SDS011;16733;48.738;9.106;2022-09-23T05:30:30;1999.90;;;999.90;;
29854;SDS011;16733;48.738;9.106;2022-09-23T05:32:56;1584.03;;;963.35;;
29854;SDS011;16733;48.738;9.106;2022-09-23T05:39:04;1999.90;;;999.90;;
29854;SDS011;16733;48.738;9.106;2022-09-23T05:41:30;1777.65;;;999.90;;
29854;SDS011;16733;48.738;9.106;2022-09-23T05:43:56;1999.90;;;999.90;;
29854;SDS011;16733;48.738;9.106;2022-09-23T05:46:24;1587.13;;;989.15;;
29854;SDS011;16733;48.738;9.106;2022-09-23T05:48:52;1729.72;;;999.90;;
29854;SDS011;16733;48.738;9.106;2022-09-23T05:51:20;1702.82;;;999.90;;
29854;SDS011;16733;48.738;9.106;2022-09-23T05:57:10;1429.82;;;999.90;;
29854;SDS011;16733;48.738;9.106;2022-09-23T05:59:35;1599.00;;;999.90;;
29854;SDS011;16733;48.738;9.106;2022-09-23T06:02:01;1603.65;;;997.10;;
29854;SDS011;16733;48.738;9.106;2022-09-23T06:04:27;781.97;;;706.03;;
29854;SDS011;16733;48.738;9.106;2022-09-23T06:09:51;829.35;;;741.15;;
29854;SDS011;16733;48.738;9.106;2022-09-23T06:12:17;935.40;;;838.55;;
29854;SDS011;16733;48.738;9.106;2022-09-23T06:18:05;1582.80;;;999.90;;
29854;SDS011;16733;48.738;9.106;2022-09-23T06:20:31;1227.90;;;982.58;;
29854;SDS011;16733;48.738;9.106;2022-09-23T06:26:20;1776.20;;;965.33;;
29854;SDS011;16733;48.738;9.106;2022-09-23T06:28:46;1568.45;;;915.88;;
29854;SDS011;16733;48.738;9.106;2022-09-23T06:31:13;1600.65;;;918.42;;
29854;SDS011;16733;48.738;9.106;2022-09-23T06:37:01;1767.38;;;999.90;;
29854;SDS011;16733;48.738;9.106;2022-09-23T06:39:27;1741.63;;;999.90;;
29854;SDS011;16733;48.738;9.106;2022-09-23T06:41:54;1315.18;;;967.42;;
29854;SDS011;16733;48.738;9.106;2022-09-23T06:44:19;1426.50;;;991.35;;
29854;SDS011;16733;48.738;9.106;2022-09-23T06:46:45;1296.25;;;963.45;;
29854;SDS011;16733;48.738;9.106;2022-09-23T06:55:58;524.95;;;477.63;;
29854;SDS011;16733;48.738;9.106;2022-09-23T06:58:35;554.55;;;503.40;;
29854;SDS011;16733;48.738;9.106;2022-09-23T07:01:09;659.28;;;595.75;;
29854;SDS011;16733;48.738;9.106;2022-09-23T07:03:36;752.25;;;680.42;;
29854;SDS011;16733;48.738;9.106;2022-09-23T07:06:03;664.90;;;607.90;;
29854;SDS011;16733;48.738;9.106;2022-09-23T07:08:29;639.38;;;584.53;;
29854;SDS011;16733;48.738;9.106;2022-09-23T07:14:19;573.78;;;531.15;;
29854;SDS011;16733;48.738;9.106;2022-09-23T07:16:47;668.53;;;615.33;;
29854;SDS011;16733;48.738;9.106;2022-09-23T07:19:13;722.78;;;661.55;;
29854;SDS011;16733;48.738;9.106;2022-09-23T07:21:38;891.78;;;811.22;;
29854;SDS011;16733;48.738;9.106;2022-09-23T07:24:04;912.75;;;829.65;;
29854;SDS011;16733;48.738;9.106;2022-09-23T07:26:30;680.60;;;624.90;;
29854;SDS011;16733;48.738;9.106;2022-09-23T07:28:58;847.55;;;772.67;;
29854;SDS011;16733;48.738;9.106;2022-09-23T07:31:28;592.47;;;543.60;;
29854;SDS011;16733;48.738;9.106;2022-09-23T07:37:17;916.67;;;839.08;;
29854;SDS011;16733;48.738;9.106;2022-09-23T07:39:43;812.25;;;748.63;;
29854;SDS011;16733;48.738;9.106;2022-09-23T07:52:15;778.83;;;713.33;;
29854;SDS011;16733;48.738;9.106;2022-09-23T07:58:05;659.30;;;608.17;;
29854;SDS011;16733;48.738;9.106;2022-09-23T08:00:30;605.38;;;559.65;;
29854;SDS011;16733;48.738;9.106;2022-09-23T08:02:57;679.28;;;626.80;;
29854;SDS011;16733;48.738;9.106;2022-09-23T08:06:06;880.55;;;798.20;;
29854;SDS011;16733;48.738;9.106;2022-09-23T08:08:34;904.83;;;820.08;;
29854;SDS011;16733;48.738;9.106;2022-09-23T08:11:03;1035.60;;;935.67;;
29854;SDS011;16733;48.738;9.106;2022-09-23T08:16:53;978.22;;;878.72;;
29854;SDS011;16733;48.738;9.106;2022-09-23T08:19:19;1041.93;;;932.20;;
29854;SDS011;16733;48.738;9.106;2022-09-23T08:21:45;1062.20;;;958.58;;
29854;SDS011;16733;48.738;9.106;2022-09-23T08:24:15;1110.32;;;988.08;;
29854;SDS011;16733;48.738;9.106;2022-09-23T08:26:48;1044.05;;;936.55;;
29854;SDS011;16733;48.738;9.106;2022-09-23T08:29:15;942.03;;;854.55;;
29854;SDS011;16733;48.738;9.106;2022-09-23T08:31:42;1136.47;;;996.58;;
29854;SDS011;16733;48.738;9.106;2022-09-23T08:34:08;979.00;;;894.60;;
29854;SDS011;16733;48.738;9.106;2022-09-23T08:39:56;1011.80;;;906.63;;
29854;SDS011;16733;48.738;9.106;2022-09-23T08:42:26;929.80;;;839.30;;
29854;SDS011;16733;48.738;9.106;2022-09-23T08:48:26;957.60;;;865.88;;
29854;SDS011;16733;48.738;9.106;2022-09-23T08:51:35;1011.22;;;910.05;;
29854;SDS011;16733;48.738;9.106;2022-09-23T08:54:08;1037.30;;;933.85;;
29854;SDS011;16733;48.738;9.106;2022-09-23T08:56:38;925.25;;;844.88;;
29854;SDS011;16733;48.738;9.106;2022-09-23T08:59:11;883.90;;;804.55;;
29854;SDS011;16733;48.738;9.106;2022-09-23T09:09:34;873.45;;;792.70;;
29854;SDS011;16733;48.738;9.106;2022-09-23T09:22:52;693.10;;;641.92;;
29854;SDS011;16733;48.738;9.106;2022-09-23T09:28:14;133.65;;;125.15;;
29854;SDS011;16733;48.738;9.106;2022-09-23T09:30:45;454.83;;;422.10;;
29854;SDS011;16733;48.738;9.106;2022-09-23T09:33:15;161.95;;;151.23;;
29854;SDS011;16733;48.738;9.106;2022-09-23T09:36:00;124.03;;;116.18;;
29854;SDS011;16733;48.738;9.106;2022-09-23T09:38:32;365.88;;;340.80;;
29854;SDS011;16733;48.738;9.106;2022-09-23T09:41:00;222.57;;;208.68;;
29854;SDS011;16733;48.738;9.106;2022-09-23T09:43:37;572.85;;;529.55;;
29854;SDS011;16733;48.738;9.106;2022-09-23T09:48:55;551.22;;;507.50;;
29854;SDS011;16733;48.738;9.106;2022-09-23T09:51:25;561.53;;;519.22;;
29854;SDS011;16733;48.738;9.106;2022-09-23T09:53:52;487.83;;;452.95;;
29854;SDS011;16733;48.738;9.106;2022-09-23T09:56:22;589.60;;;545.70;;
29854;SDS011;16733;48.738;9.106;2022-09-23T09:58:59;620.65;;;573.40;;
29854;SDS011;16733;48.738;9.106;2022-09-23T10:01:32;633.72;;;585.88;;
29854;SDS011;16733;48.738;9.106;2022-09-23T10:04:19;574.92;;;531.15;;
29854;SDS011;16733;48.738;9.106;2022-09-23T10:09:31;715.33;;;658.97;;
29854;SDS011;16733;48.738;9.106;2022-09-23T10:14:34;634.88;;;586.40;;
29854;SDS011;16733;48.738;9.106;2022-09-23T10:17:04;698.85;;;644.17;;
29854;SDS011;16733;48.738;9.106;2022-09-23T10:19:31;563.85;;;519.53;;
29854;SDS011;16733;48.738;9.106;2022-09-23T10:22:01;592.45;;;546.63;;
29854;SDS011;16733;48.738;9.106;2022-09-23T10:24:29;557.70;;;513.40;;
29854;SDS011;16733;48.738;9.106;2022-09-23T10:27:08;617.28;;;568.97;;
29854;SDS011;16733;48.738;9.106;2022-09-23T10:29:40;525.80;;;484.48;;
29854;SDS011;16733;48.738;9.106;2022-09-23T10:32:31;376.42;;;348.85;;
29854;SDS011;16733;48.738;9.106;2022-09-23T10:40:26;200.30;;;187.13;;
29854;SDS011;16733;48.738;9.106;2022-09-23T10:43:23;397.52;;;368.33;;
29854;SDS011;16733;48.738;9.106;2022-09-23T10:46:19;261.25;;;244.13;;
29854;SDS011;16733;48.738;9.106;2022-09-23T10:55:08;520.10;;;483.45;;
29854;SDS011;16733;48.738;9.106;2022-09-23T11:08:38;658.78;;;614.33;;
29854;SDS011;16733;48.738;9.106;2022-09-23T11:25:37;941.03;;;865.05;;
29854;SDS011;16733;48.738;9.106;2022-09-23T11:31:25;876.13;;;809.20;;
29854;SDS011;16733;48.738;9.106;2022-09-23T11:36:52;1037.32;;;950.50;;
29854;SDS011;16733;48.738;9.106;2022-09-23T11:40:11;1019.65;;;932.50;;
29854;SDS011;16733;48.738;9.106;2022-09-23T11:42:26;1023.67;;;938.55;;
29854;SDS011;16733;48.738;9.106;2022-09-23T11:44:57;838.42;;;778.33;;
29854;SDS011;16733;48.738;9.106;2022-09-23T11:47:30;859.97;;;790.80;;
29854;SDS011;16733;48.738;9.106;2022-09-23T11:53:07;259.27;;;243.32;;
29854;SDS011;16733;48.738;9.106;2022-09-23T11:55:45;234.02;;;219.35;;
29854;SDS011;16733;48.738;9.106;2022-09-23T11:58:18;174.45;;;163.38;;
29854;SDS011;16733;48.738;9.106;2022-09-23T12:00:54;285.92;;;266.55;;
29854;SDS011;16733;48.738;9.106;2022-09-23T12:03:29;452.13;;;421.50;;
29854;SDS011;16733;48.738;9.106;2022-09-23T12:06:46;157.65;;;147.73;;
29854;SDS011;16733;48.738;9.106;2022-09-23T12:09:21;105.50;;;98.55;;
29854;SDS011;16733;48.738;9.106;2022-09-23T12:11:53;296.02;;;276.33;;
29854;SDS011;16733;48.738;9.106;2022-09-23T12:28:21;277.23;;;261.02;;
29854;SDS011;16733;48.738;9.106;2022-09-23T12:30:50;269.13;;;253.07;;
29854;SDS011;16733;48.738;9.106;2022-09-23T12:33:21;234.05;;;220.02;;
29854;SDS011;16733;48.738;9.106;2022-09-23T12:35:52;237.05;;;221.80;;
29854;SDS011;16733;48.738;9.106;2022-09-23T12:38:39;269.70;;;253.13;;
29854;SDS011;16733;48.738;9.106;2022-09-23T12:41:28;260.75;;;245.35;;
29854;SDS011;16733;48.738;9.106;2022-09-23T12:46:37;273.90;;;256.13;;
29854;SDS011;16733;48.738;9.106;2022-09-23T12:49:05;251.63;;;236.45;;
29854;SDS011;16733;48.738;9.106;2022-09-23T12:54:37;257.50;;;241.25;;
29854;SDS011;16733;48.738;9.106;2022-09-23T12:57:05;255.38;;;240.27;;
29854;SDS011;16733;48.738;9.106;2022-09-23T13:02:36;227.73;;;214.52;;
29854;SDS011;16733;48.738;9.106;2022-09-23T13:08:11;298.85;;;281.52;;
29854;SDS011;16733;48.738;9.106;2022-09-23T13:10:59;240.50;;;226.73;;
29854;SDS011;16733;48.738;9.106;2022-09-23T13:15:51;113.50;;;106.30;;
29854;SDS011;16733;48.738;9.106;2022-09-23T13:20:44;290.80;;;273.63;;
29854;SDS011;16733;48.738;9.106;2022-09-23T13:25:58;567.45;;;528.83;;
29854;SDS011;16733;48.738;9.106;2022-09-23T13:30:54;633.05;;;589.90;;
29854;SDS011;16733;48.738;9.106;2022-09-23T13:33:21;389.13;;;365.17;;
29854;SDS011;16733;48.738;9.106;2022-09-23T13:35:48;508.23;;;474.13;;
29854;SDS011;16733;48.738;9.106;2022-09-23T13:38:24;477.67;;;447.08;;
29854;SDS011;16733;48.738;9.106;2022-09-23T13:41:02;446.73;;;417.90;;
29854;SDS011;16733;48.738;9.106;2022-09-23T13:46:41;657.72;;;611.55;;
29854;SDS011;16733;48.738;9.106;2022-09-23T13:49:21;660.70;;;614.72;;
29854;SDS011;16733;48.738;9.106;2022-09-23T13:51:53;666.55;;;620.00;;
29854;SDS011;16733;48.738;9.106;2022-09-23T13:54:31;654.45;;;608.33;;
29854;SDS011;16733;48.738;9.106;2022-09-23T13:57:00;575.80;;;536.63;;
29854;SDS011;16733;48.738;9.106;2022-09-23T13:59:27;165.15;;;155.20;;
29854;SDS011;16733;48.738;9.106;2022-09-23T14:04:28;660.17;;;614.13;;
29854;SDS011;16733;48.738;9.106;2022-09-23T14:06:53;688.17;;;639.08;;
29854;SDS011;16733;48.738;9.106;2022-09-23T14:09:21;729.85;;;678.00;;
29854;SDS011;16733;48.738;9.106;2022-09-23T14:11:51;729.22;;;677.05;;
29854;SDS011;16733;48.738;9.106;2022-09-23T14:14:22;750.30;;;696.53;;
29854;SDS011;16733;48.738;9.106;2022-09-23T14:16:48;746.97;;;693.78;;
29854;SDS011;16733;48.738;9.106;2022-09-23T14:19:16;702.78;;;653.38;;
29854;SDS011;16733;48.738;9.106;2022-09-23T14:21:46;712.35;;;661.88;;
29854;SDS011;16733;48.738;9.106;2022-09-23T14:24:23;680.17;;;632.65;;
29854;SDS011;16733;48.738;9.106;2022-09-23T14:26:57;657.80;;;611.83;;
29854;SDS011;16733;48.738;9.106;2022-09-23T14:29:31;730.30;;;678.75;;
29854;SDS011;16733;48.738;9.106;2022-09-23T14:32:03;575.28;;;535.80;;
29854;SDS011;16733;48.738;9.106;2022-09-23T14:37:17;510.75;;;476.60;;
29854;SDS011;16733;48.738;9.106;2022-09-23T14:40:03;348.35;;;326.30;;
29854;SDS011;16733;48.738;9.106;2022-09-23T14:42:36;544.67;;;507.60;;
29854;SDS011;16733;48.738;9.106;2022-09-23T14:45:05;544.92;;;507.50;;
29854;SDS011;16733;48.738;9.106;2022-09-23T14:47:36;547.47;;;509.90;;
29854;SDS011;16733;48.738;9.106;2022-09-23T14:50:01;639.92;;;595.22;;
29854;SDS011;16733;48.738;9.106;2022-09-23T14:52:49;619.22;;;575.88;;
29854;SDS011;16733;48.738;9.106;2022-09-23T14:55:15;480.48;;;447.85;;
29854;SDS011;16733;48.738;9.106;2022-09-23T14:57:42;616.05;;;573.17;;
29854;SDS011;16733;48.738;9.106;2022-09-23T15:00:16;677.92;;;629.30;;
29854;SDS011;16733;48.738;9.106;2022-09-23T15:02:44;685.97;;;637.03;;
29854;SDS011;16733;48.738;9.106;2022-09-23T15:05:42;678.25;;;630.00;;
29854;SDS011;16733;48.738;9.106;2022-09-23T15:08:13;659.58;;;612.78;;
29854;SDS011;16733;48.738;9.106;2022-09-23T15:10:45;735.60;;;682.55;;
29854;SDS011;16733;48.738;9.106;2022-09-23T15:13:16;525.50;;;489.45;;
29854;SDS011;16733;48.738;9.106;2022-09-23T15:15:47;517.10;;;481.65;;
29854;SDS011;16733;48.738;9.106;2022-09-23T15:18:26;549.63;;;512.00;;
29854;SDS011;16733;48.738;9.106;2022-09-23T15:21:07;1999.90;;;999.90;;
29854;SDS011;16733;48.738;9.106;2022-09-23T15:26:12;626.83;;;584.33;;
29854;SDS011;16733;48.738;9.106;2022-09-23T15:28:40;491.00;;;454.85;;
29854;SDS011;16733;48.738;9.106;2022-09-23T15:33:40;845.28;;;780.80;;
29854;SDS011;16733;48.738;9.106;2022-09-23T15:36:17;717.95;;;668.13;;
29854;SDS011;16733;48.738;9.106;2022-09-23T15:38:45;566.25;;;528.28;;
29854;SDS011;16733;48.738;9.106;2022-09-23T15:41:11;414.83;;;389.60;;
29854;SDS011;16733;48.738;9.106;2022-09-23T15:43:38;428.95;;;403.35;;
29854;SDS011;16733;48.738;9.106;2022-09-23T15:46:06;323.17;;;304.02;;
29854;SDS011;16733;48.738;9.106;2022-09-23T15:48:41;356.63;;;333.95;;
29854;SDS011;16733;48.738;9.106;2022-09-23T15:51:14;359.73;;;336.52;;
29854;SDS011;16733;48.738;9.106;2022-09-23T15:53:40;322.13;;;301.48;;
29854;SDS011;16733;48.738;9.106;2022-09-23T15:56:05;402.70;;;376.00;;
29854;SDS011;16733;48.738;9.106;2022-09-23T15:58:31;442.85;;;412.35;;
29854;SDS011;16733;48.738;9.106;2022-09-23T16:00:57;303.50;;;283.35;;
29854;SDS011;16733;48.738;9.106;2022-09-23T16:03:24;278.77;;;260.73;;
29854;SDS011;16733;48.738;9.106;2022-09-23T16:05:52;527.80;;;490.58;;
29854;SDS011;16733;48.738;9.106;2022-09-23T16:08:21;502.80;;;467.00;;
29854;SDS011;16733;48.738;9.106;2022-09-23T16:10:48;396.55;;;369.17;;
29854;SDS011;16733;48.738;9.106;2022-09-23T16:13:15;504.67;;;469.60;;
29854;SDS011;16733;48.738;9.106;2022-09-23T16:15:41;487.83;;;454.17;;
29854;SDS011;16733;48.738;9.106;2022-09-23T16:18:08;606.38;;;562.38;;
29854;SDS011;16733;48.738;9.106;2022-09-23T16:20:36;213.23;;;198.77;;
29854;SDS011;16733;48.738;9.106;2022-09-23T16:23:07;1999.90;;;999.90;;
29854;SDS011;16733;48.738;9.106;2022-09-23T16:25:44;6.45;;;2.60;;
29854;SDS011;16733;48.738;9.106;2022-09-23T16:28:10;1999.90;;;999.90;;
29854;SDS011;16733;48.738;9.106;2022-09-23T16:30:36;1999.90;;;999.90;;
29854;SDS011;16733;48.738;9.106;2022-09-23T16:33:01;1999.90;;;999.90;;
29854;SDS011;16733;48.738;9.106;2022-09-23T16:35:28;1999.90;;;999.90;;
29854;SDS011;16733;48.738;9.106;2022-09-23T16:37:57;1999.90;;;999.90;;
29854;SDS011;16733;48.738;9.106;2022-09-23T16:40:23;1999.90;;;999.90;;
29854;SDS011;16733;48.738;9.106;2022-09-23T16:42:49;1999.90;;;999.90;;
29854;SDS011;16733;48.738;9.106;2022-09-23T16:45:19;1999.90;;;999.90;;
29854;SDS011;16733;48.738;9.106;2022-09-23T16:47:47;1999.90;;;999.90;;
29854;SDS011;16733;48.738;9.106;2022-09-23T16:50:19;1999.90;;;999.90;;
29854;SDS011;16733;48.738;9.106;2022-09-23T16:52:47;1999.90;;;999.90;;
29854;SDS011;16733;48.738;9.106;2022-09-23T16:55:13;1999.90;;;999.90;;
29854;SDS011;16733;48.738;9.106;2022-09-23T16:57:39;11.90;;;5.95;;
29854;SDS011;16733;48.738;9.106;2022-09-23T17:00:07;10.13;;;5.53;;
29854;SDS011;16733;48.738;9.106;2022-09-23T17:02:55;11.60;;;6.57;;
29854;SDS011;16733;48.738;9.106;2022-09-23T17:05:40;8.70;;;4.85;;
29854;SDS011;16733;48.738;9.106;2022-09-23T17:08:08;13.93;;;6.38;;
29854;SDS011;16733;48.738;9.106;2022-09-23T17:10:37;10.25;;;4.97;;
29854;SDS011;16733;48.738;9.106;2022-09-23T17:13:06;1999.90;;;999.90;;
29854;SDS011;16733;48.738;9.106;2022-09-23T17:15:38;1999.90;;;999.90;;
29854;SDS011;16733;48.738;9.106;2022-09-23T17:18:05;1999.90;;;999.90;;
29854;SDS011;16733;48.738;9.106;2022-09-23T17:20:32;1999.90;;;999.90;;
29854;SDS011;16733;48.738;9.106;2022-09-23T17:22:58;1999.90;;;999.90;;
29854;SDS011;16733;48.738;9.106;2022-09-23T17:25:24;17.75;;;3.35;;
29854;SDS011;16733;48.738;9.106;2022-09-23T17:27:50;13.48;;;3.00;;
29854;SDS011;16733;48.738;9.106;2022-09-23T17:30:16;10.93;;;2.80;;
29854;SDS011;16733;48.738;9.106;2022-09-23T17:32:41;8.15;;;2.63;;
29854;SDS011;16733;48.738;9.106;2022-09-23T17:35:07;5.78;;;2.70;;
29854;SDS011;16733;48.738;9.106;2022-09-23T17:37:34;3.22;;;2.25;;
29854;SDS011;16733;48.738;9.106;2022-09-23T17:40:01;4.10;;;2.40;;
29854;SDS011;16733;48.738;9.106;2022-09-23T17:42:27;2.83;;;2.20;;
29854;SDS011;16733;48.738;9.106;2022-09-23T17:44:52;40.00;;;25.38;;
29854;SDS011;16733;48.738;9.106;2022-09-23T17:47:22;4.68;;;2.28;;
29854;SDS011;16733;48.738;9.106;2022-09-23T17:49:47;16.15;;;2.30;;
29854;SDS011;16733;48.738;9.106;2022-09-23T17:52:13;7.45;;;3.35;;
29854;SDS011;16733;48.738;9.106;2022-09-23T17:54:39;6.20;;;2.13;;
29854;SDS011;16733;48.738;9.106;2022-09-23T17:57:05;7.47;;;2.20;;
29854;SDS011;16733;48.738;9.106;2022-09-23T17:59:31;4.13;;;2.10;;
29854;SDS011;16733;48.738;9.106;2022-09-23T18:01:56;3.92;;;2.33;;
29854;SDS011;16733;48.738;9.106;2022-09-23T18:04:22;4.70;;;2.17;;
29854;SDS011;16733;48.738;9.106;2022-09-23T18:06:47;5.57;;;2.65;;
29854;SDS011;16733;48.738;9.106;2022-09-23T18:09:13;69.07;;;60.53;;
29854;SDS011;16733;48.738;9.106;2022-09-23T18:11:40;24.20;;;21.92;;
29854;SDS011;16733;48.738;9.106;2022-09-23T18:16:37;13.63;;;8.35;;
29854;SDS011;16733;48.738;9.106;2022-09-23T18:19:04;8.88;;;3.95;;
29854;SDS011;16733;48.738;9.106;2022-09-23T18:21:32;10.07;;;3.45;;
29854;SDS011;16733;48.738;9.106;2022-09-23T18:23:59;8.10;;;3.45;;
29854;SDS011;16733;48.738;9.106;2022-09-23T18:26:25;8.45;;;3.92;;
29854;SDS011;16733;48.738;9.106;2022-09-23T18:28:52;6.50;;;2.35;;
29854;SDS011;16733;48.738;9.106;2022-09-23T18:31:21;34.83;;;6.68;;
29854;SDS011;16733;48.738;9.106;2022-09-23T18:33:48;6.88;;;3.67;;
29854;SDS011;16733;48.738;9.106;2022-09-23T18:36:15;6.30;;;2.97;;
29854;SDS011;16733;48.738;9.106;2022-09-23T18:38:41;6.25;;;2.92;;
29854;SDS011;16733;48.738;9.106;2022-09-23T18:41:07;4.22;;;2.50;;
29854;SDS011;16733;48.738;9.106;2022-09-23T18:43:34;5.00;;;2.60;;
29854;SDS011;16733;48.738;9.106;2022-09-23T18:48:26;3.83;;;2.75;;
29854;SDS011;16733;48.738;9.106;2022-09-23T18:51:12;6.18;;;2.35;;
29854;SDS011;16733;48.738;9.106;2022-09-23T18:53:39;5.57;;;1.85;;
29854;SDS011;16733;48.738;9.106;2022-09-23T18:56:08;18.25;;;2.97;;
29854;SDS011;16733;48.738;9.106;2022-09-23T18:58:36;10.07;;;2.55;;
29854;SDS011;16733;48.738;9.106;2022-09-23T19:01:03;4.50;;;2.47;;
29854;SDS011;16733;48.738;9.106;2022-09-23T19:03:30;2.95;;;2.15;;
29854;SDS011;16733;48.738;9.106;2022-09-23T19:06:00;5.50;;;2.65;;
29854;SDS011;16733;48.738;9.106;2022-09-23T19:08:34;6.18;;;2.80;;
29854;SDS011;16733;48.738;9.106;2022-09-23T19:11:00;5.10;;;2.28;;